Time;durP1;ratioP1;P1;durP2;ratioP2;P2;SDS_P1;SDS_P2;PMS_P1;PMS_P2;Temp;Humidity;BMP_temperature;BMP_pressure;BME280_temperature;BME280_humidity;BME280_pressure;Samples;Min_cycle;Max_cycle;Signal;HPM_P1;HPM_P2
2022/04/29 00:00:44;;;;;;;5.00;4.50;;;13.10;99.90;;;;;;5092712;28;20768;-70
2022/04/29 00:03:13;;;;;;;5.88;5.20;;;13.10;99.90;;;;;;5093321;28;20203;-69
2022/04/29 00:05:43;;;;;;;6.72;4.97;;;13.20;99.90;;;;;;5093609;28;20233;-69
2022/04/29 00:08:12;;;;;;;5.63;5.13;;;13.10;99.90;;;;;;5093430;28;20285;-68
2022/04/29 00:10:41;;;;;;;5.22;4.60;;;13.10;99.90;;;;;;5093455;28;20272;-70
2022/04/29 00:13:13;;;;;;;6.32;4.70;;;13.10;99.90;;;;;;5092555;28;20726;-71
2022/04/29 00:15:42;;;;;;;6.43;5.30;;;13.10;99.90;;;;;;5093675;28;20202;-68
2022/04/29 00:18:11;;;;;;;5.35;4.90;;;13.20;99.90;;;;;;5093261;28;20222;-69
2022/04/29 00:20:39;;;;;;;7.45;5.25;;;13.00;99.90;;;;;;5093312;28;20257;-70
2022/04/29 00:23:07;;;;;;;7.75;5.18;;;13.00;99.90;;;;;;5092617;28;20203;-70
2022/04/29 00:25:35;;;;;;;8.30;5.07;;;13.00;99.90;;;;;;5093125;28;20233;-70
2022/04/29 00:28:04;;;;;;;6.22;5.03;;;13.00;99.90;;;;;;5093068;28;20237;-70
2022/04/29 00:30:32;;;;;;;5.68;4.55;;;13.10;99.90;;;;;;5093206;28;20230;-72
2022/04/29 00:33:01;;;;;;;5.00;4.55;;;13.10;99.90;;;;;;5092446;28;20234;-69
2022/04/29 00:35:30;;;;;;;7.95;4.85;;;13.10;99.90;;;;;;5092971;28;20260;-69
2022/04/29 00:37:59;;;;;;;9.55;4.82;;;13.00;99.90;;;;;;5092352;28;20237;-70
2022/04/29 00:40:28;;;;;;;5.70;5.20;;;13.00;99.90;;;;;;5092996;28;20254;-69
2022/04/29 00:42:56;;;;;;;5.45;4.88;;;12.90;99.90;;;;;;5092146;28;20222;-70
2022/04/29 00:45:25;;;;;;;8.50;6.32;;;12.90;99.90;;;;;;5093092;28;20234;-70
2022/04/29 00:47:54;;;;;;;6.03;4.85;;;12.80;99.90;;;;;;5092648;28;20231;-71
2022/04/29 00:50:28;;;;;;;5.32;4.82;;;12.70;99.90;;;;;;5063935;28;20256;-70
2022/04/29 00:52:59;;;;;;;5.53;4.95;;;12.70;99.90;;;;;;5009045;28;20225;-69
2022/04/29 00:55:28;;;;;;;5.95;5.40;;;12.70;99.90;;;;;;5009974;28;20254;-70
2022/04/29 00:58:03;;;;;;;5.68;5.15;;;12.70;99.90;;;;;;5009410;28;20209;-72
2022/04/29 01:00:32;;;;;;;5.50;4.78;;;12.60;99.90;;;;;;4992154;28;20262;-71
2022/04/29 01:03:01;;;;;;;5.80;5.00;;;12.50;99.90;;;;;;5008844;28;20212;-71
2022/04/29 01:05:33;;;;;;;6.50;5.90;;;12.50;99.90;;;;;;5009545;28;20206;-71
2022/04/29 01:08:01;;;;;;;5.93;5.35;;;12.40;99.90;;;;;;5009164;28;20567;-71
2022/04/29 01:10:29;;;;;;;6.80;6.13;;;12.40;99.90;;;;;;5009677;28;20327;-70
2022/04/29 01:12:59;;;;;;;5.38;4.88;;;12.30;99.90;;;;;;5008693;28;20209;-70
2022/04/29 01:15:27;;;;;;;6.72;6.22;;;12.30;99.90;;;;;;5009383;28;20202;-70
2022/04/29 01:17:58;;;;;;;6.82;6.10;;;12.10;99.90;;;;;;5008984;28;20939;-70
2022/04/29 01:20:29;;;;;;;6.22;5.38;;;12.10;99.90;;;;;;5003785;28;20255;-70
2022/04/29 01:22:58;;;;;;;6.82;5.43;;;12.10;99.90;;;;;;5003008;28;20666;-70
2022/04/29 01:25:26;;;;;;;5.40;4.82;;;12.10;99.90;;;;;;5008516;28;20212;-71
2022/04/29 01:27:54;;;;;;;7.32;5.90;;;12.10;99.90;;;;;;5008929;28;20280;-70
2022/04/29 01:30:22;;;;;;;5.55;5.05;;;12.10;99.90;;;;;;5009191;28;20245;-68
2022/04/29 01:32:50;;;;;;;5.85;5.20;;;12.10;99.90;;;;;;5008743;28;20251;-70
2022/04/29 01:35:18;;;;;;;5.65;5.03;;;12.10;99.90;;;;;;5009198;28;20296;-70
2022/04/29 01:37:46;;;;;;;5.70;5.20;;;12.20;99.90;;;;;;5008706;28;20224;-70
2022/04/29 01:40:16;;;;;;;5.82;4.97;;;12.30;99.90;;;;;;5009135;28;20725;-70
2022/04/29 01:42:45;;;;;;;4.82;4.35;;;12.30;99.90;;;;;;5008227;28;20671;-70
2022/04/29 01:45:12;;;;;;;7.53;5.40;;;12.40;99.90;;;;;;5008989;28;20209;-70
2022/04/29 01:47:40;;;;;;;6.90;6.22;;;12.40;99.90;;;;;;5008835;28;20665;-70
2022/04/29 01:50:09;;;;;;;6.90;5.78;;;12.30;99.90;;;;;;5008851;28;20286;-70
2022/04/29 01:52:37;;;;;;;6.18;5.45;;;12.10;99.90;;;;;;5008444;28;20247;-70
2022/04/29 01:55:05;;;;;;;5.72;5.20;;;12.00;99.90;;;;;;5008844;28;20206;-70
2022/04/29 01:57:35;;;;;;;7.25;6.30;;;12.10;99.90;;;;;;5008397;28;20254;-70
2022/04/29 02:00:05;;;;;;;5.93;5.10;;;12.00;99.90;;;;;;5008994;28;20221;-70
2022/04/29 02:02:33;;;;;;;6.07;5.47;;;12.00;99.90;;;;;;5008286;28;20244;-70
2022/04/29 02:05:01;;;;;;;6.65;6.13;;;12.00;99.90;;;;;;5008609;28;20202;-70
2022/04/29 02:07:29;;;;;;;7.57;5.85;;;12.00;99.90;;;;;;5008273;28;20662;-70
2022/04/29 02:09:57;;;;;;;6.00;5.40;;;12.10;99.90;;;;;;5008530;28;20346;-70
2022/04/29 02:12:25;;;;;;;6.38;5.75;;;12.00;99.90;;;;;;5008238;28;20241;-70
2022/04/29 02:14:54;;;;;;;5.93;5.03;;;12.00;99.90;;;;;;5008560;28;20731;-70
2022/04/29 02:17:22;;;;;;;7.50;5.65;;;12.00;99.90;;;;;;5008428;28;20293;-70
2022/04/29 02:19:49;;;;;;;6.78;5.20;;;12.10;99.90;;;;;;5008195;28;20778;-70
2022/04/29 02:22:17;;;;;;;5.72;5.10;;;12.10;99.90;;;;;;5007714;28;20236;-70
2022/04/29 02:24:45;;;;;;;7.55;5.80;;;12.00;99.90;;;;;;5008821;28;20209;-70
2022/04/29 02:27:13;;;;;;;6.50;5.80;;;11.90;99.90;;;;;;5008356;28;20233;-69
2022/04/29 02:29:41;;;;;;;5.35;4.82;;;11.90;99.90;;;;;;5008553;28;20647;-69
2022/04/29 02:32:11;;;;;;;7.60;5.90;;;11.90;99.90;;;;;;5007529;28;20206;-70
2022/04/29 02:34:41;;;;;;;7.55;6.40;;;11.90;99.90;;;;;;5008028;28;20235;-69
2022/04/29 02:37:09;;;;;;;6.38;5.80;;;11.90;99.90;;;;;;5006817;28;20205;-70
2022/04/29 02:39:38;;;;;;;6.05;5.53;;;11.80;99.90;;;;;;5008362;28;20660;-70
2022/04/29 02:42:08;;;;;;;9.00;6.38;;;11.80;99.90;;;;;;5007606;28;20201;-70
2022/04/29 02:44:37;;;;;;;6.88;6.15;;;11.70;99.90;;;;;;5008321;28;20216;-70
2022/04/29 02:47:09;;;;;;;10.23;6.00;;;11.70;99.90;;;;;;5008045;28;20226;-69
2022/04/29 02:49:41;;;;;;;6.40;5.82;;;11.60;99.90;;;;;;5008148;28;20211;-70
2022/04/29 02:52:12;;;;;;;6.43;5.80;;;11.60;99.90;;;;;;5007342;28;20201;-70
2022/04/29 02:54:40;;;;;;;6.55;5.93;;;11.70;99.90;;;;;;5008225;28;20206;-70
2022/04/29 02:57:08;;;;;;;7.15;6.40;;;11.80;99.90;;;;;;5007919;28;20250;-72
2022/04/29 02:59:36;;;;;;;13.85;5.35;;;11.80;99.90;;;;;;5007784;28;20216;-71
2022/04/29 03:02:05;;;;;;;6.47;5.65;;;11.90;99.90;;;;;;5007586;28;20201;-71
2022/04/29 03:04:33;;;;;;;5.97;5.22;;;11.90;99.90;;;;;;5008103;28;20579;-69
2022/04/29 03:07:03;;;;;;;6.35;5.75;;;11.90;99.90;;;;;;5007533;28;20233;-70
2022/04/29 03:09:32;;;;;;;6.15;5.65;;;11.90;99.90;;;;;;5007941;28;20271;-70
2022/04/29 03:12:00;;;;;;;6.05;5.40;;;11.80;99.90;;;;;;5007429;28;20678;-69
2022/04/29 03:14:28;;;;;;;6.22;5.50;;;11.90;99.90;;;;;;5007804;28;20205;-69
2022/04/29 03:16:56;;;;;;;6.65;5.30;;;11.90;99.90;;;;;;5007852;28;20295;-70
2022/04/29 03:19:23;;;;;;;6.05;5.53;;;11.90;99.90;;;;;;5007564;28;20282;-70
2022/04/29 03:21:51;;;;;;;6.30;5.70;;;11.80;99.90;;;;;;5007859;28;20274;-70
2022/04/29 03:24:20;;;;;;;6.78;6.00;;;11.70;99.90;;;;;;5006804;28;20212;-70
2022/04/29 03:26:49;;;;;;;7.05;5.90;;;11.60;99.90;;;;;;5007611;28;20214;-71
2022/04/29 03:29:17;;;;;;;6.30;5.80;;;11.50;99.90;;;;;;5007684;28;20233;-70
2022/04/29 03:31:45;;;;;;;7.00;5.57;;;11.40;99.90;;;;;;5007846;28;20607;-70
2022/04/29 03:34:13;;;;;;;9.52;6.35;;;11.50;99.90;;;;;;5007082;28;20206;-70
2022/04/29 03:36:41;;;;;;;7.00;6.50;;;11.40;99.90;;;;;;5007842;28;20241;-71
2022/04/29 03:39:09;;;;;;;8.45;6.35;;;11.40;99.90;;;;;;5072570;28;20693;-70
2022/04/29 03:41:38;;;;;;;6.03;5.40;;;11.30;99.90;;;;;;5010030;28;20740;-70
2022/04/29 03:44:06;;;;;;;7.30;6.32;;;11.10;99.90;;;;;;5006797;28;20205;-70
2022/04/29 03:46:34;;;;;;;6.72;6.10;;;11.20;99.90;;;;;;5007621;28;20233;-69
2022/04/29 03:51:47;;;;;;;7.03;6.43;;;11.20;99.90;;;;;;5087652;28;20266;-70
2022/04/29 03:54:15;;;;;;;6.75;6.10;;;11.10;99.90;;;;;;5092910;28;20206;-69
2022/04/29 03:56:45;;;;;;;8.10;7.40;;;11.20;99.90;;;;;;5093588;28;20675;-70
2022/04/29 03:59:13;;;;;;;6.22;5.63;;;11.10;99.90;;;;;;5093460;28;20250;-70
2022/04/29 04:01:42;;;;;;;6.82;6.13;;;11.10;99.90;;;;;;5093995;28;20288;-70
2022/04/29 04:04:10;;;;;;;6.55;5.90;;;11.00;99.90;;;;;;5093091;28;20198;-70
2022/04/29 04:06:50;;;;;;;7.13;6.53;;;10.90;99.90;;;;;;5093458;28;20596;-69
2022/04/29 04:09:19;;;;;;;7.30;6.60;;;10.80;99.90;;;;;;5093371;28;20198;-70
2022/04/29 04:11:49;;;;;;;6.43;5.75;;;10.90;99.90;;;;;;5093244;28;20272;-69
2022/04/29 04:14:18;;;;;;;8.10;6.60;;;10.70;99.90;;;;;;5092815;28;20230;-70
2022/04/29 04:16:46;;;;;;;7.15;6.55;;;10.60;99.90;;;;;;5093661;28;20272;-69
2022/04/29 04:19:14;;;;;;;5.82;5.32;;;10.40;99.90;;;;;;5093161;28;20215;-70
2022/04/29 04:21:42;;;;;;;7.20;6.50;;;10.30;99.90;;;;;;5093185;28;20262;-71
2022/04/29 04:24:10;;;;;;;7.50;6.78;;;10.30;99.90;;;;;;5092745;28;20252;-68
2022/04/29 04:26:38;;;;;;;7.80;7.18;;;10.30;99.90;;;;;;5093289;28;20237;-70
2022/04/29 04:29:07;;;;;;;8.23;6.47;;;10.10;99.90;;;;;;5093014;28;20234;-70
2022/04/29 04:31:35;;;;;;;16.20;7.72;;;10.20;99.90;;;;;;5092683;28;20600;-70
2022/04/29 04:34:49;;;;;;;7.03;6.43;;;10.10;99.90;;;;;;5092491;28;20664;-69
2022/04/29 04:36:53;;;;;;;9.18;6.90;;;10.10;99.90;;;;;;5080113;28;20234;-68
2022/04/29 04:39:21;;;;;;;8.20;7.40;;;10.00;99.90;;;;;;5079095;28;20224;-66
2022/04/29 04:41:50;;;;;;;9.32;7.25;;;10.00;99.90;;;;;;5079670;28;20227;-67
2022/04/29 04:44:19;;;;;;;11.73;7.15;;;9.90;99.90;;;;;;5079083;28;20212;-69
2022/04/29 04:46:47;;;;;;;6.15;5.75;;;9.90;99.90;;;;;;5079251;28;20213;-67
2022/04/29 04:49:15;;;;;;;8.23;7.57;;;9.90;99.90;;;;;;5078694;28;20724;-66
2022/04/29 04:51:43;;;;;;;8.73;7.80;;;10.00;99.90;;;;;;5019355;28;20251;-68
2022/04/29 04:54:11;;;;;;;10.93;8.02;;;9.90;99.90;;;;;;5009098;28;20213;-67
2022/04/29 04:56:39;;;;;;;7.72;6.80;;;10.00;99.90;;;;;;5012341;28;20281;-66
2022/04/29 04:59:07;;;;;;;8.02;7.43;;;10.30;99.90;;;;;;5011822;28;20233;-67
2022/04/29 05:01:36;;;;;;;8.43;6.60;;;10.30;99.90;;;;;;5013140;28;20239;-67
2022/04/29 05:04:05;;;;;;;8.27;7.40;;;10.40;99.90;;;;;;5009312;28;20223;-67
2022/04/29 05:06:33;;;;;;;7.97;7.18;;;10.60;99.90;;;;;;5010649;28;20312;-67
2022/04/29 05:09:00;;;;;;;11.32;8.77;;;10.80;99.90;;;;;;5012578;28;20679;-67
2022/04/29 05:11:28;;;;;;;8.35;7.55;;;11.00;99.90;;;;;;5013260;28;20308;-68
2022/04/29 05:14:16;;;;;;;8.07;7.38;;;11.00;99.90;;;;;;5007413;28;20253;-67
2022/04/29 05:16:45;;;;;;;11.63;6.90;;;11.10;99.90;;;;;;5011074;28;20620;-68
2022/04/29 05:19:13;;;;;;;6.78;6.28;;;11.10;99.90;;;;;;5012635;28;20684;-67
2022/04/29 05:21:41;;;;;;;7.60;6.80;;;11.20;99.90;;;;;;5011856;28;20312;-67
2022/04/29 05:24:09;;;;;;;7.40;6.75;;;11.40;99.90;;;;;;5009011;28;20209;-67
2022/04/29 05:26:37;;;;;;;6.97;6.35;;;11.30;99.90;;;;;;5011048;28;20223;-68
2022/04/29 05:29:05;;;;;;;6.78;5.90;;;11.30;99.90;;;;;;5012192;28;20638;-68
2022/04/29 05:31:33;;;;;;;11.57;6.95;;;11.40;99.90;;;;;;5011992;28;20278;-68
2022/04/29 05:34:06;;;;;;;7.78;7.07;;;11.40;99.90;;;;;;5007664;28;20207;-68
2022/04/29 05:36:35;;;;;;;8.05;7.25;;;11.50;99.90;;;;;;5011526;28;20296;-68
2022/04/29 05:44:35;;;;;;;6.30;5.80;;;11.60;99.90;;;;;;5009863;28;20273;-68
2022/04/29 05:47:04;;;;;;;9.60;6.90;;;11.70;99.90;;;;;;5011385;28;20209;-67
2022/04/29 05:49:33;;;;;;;8.90;7.18;;;11.60;99.90;;;;;;5026998;23;20236;-65
2022/04/29 05:52:02;;;;;;;8.57;7.68;;;11.50;99.90;;;;;;5005362;28;20259;-64
2022/04/29 05:54:31;;;;;;;10.10;9.10;;;11.50;99.90;;;;;;5005827;28;20638;-64
2022/04/29 05:56:59;;;;;;;9.57;8.57;;;11.40;99.90;;;;;;5005818;28;20263;-64
2022/04/29 05:59:27;;;;;;;9.90;8.98;;;11.30;99.90;;;;;;5007423;28;20275;-64
2022/04/29 06:01:55;;;;;;;9.85;8.95;;;11.30;99.90;;;;;;5006965;28;20623;-64
2022/04/29 06:04:23;;;;;;;9.70;8.70;;;11.40;99.90;;;;;;5011305;28;20259;-64
2022/04/29 06:06:53;;;;;;;10.18;9.27;;;11.40;99.90;;;;;;5006962;28;20213;-64
2022/04/29 06:09:20;;;;;;;9.05;7.57;;;11.50;99.90;;;;;;5006120;28;20202;-65
2022/04/29 06:11:48;;;;;;;9.20;8.40;;;11.60;99.90;;;;;;5003569;28;20622;-64
2022/04/29 06:14:16;;;;;;;9.70;8.60;;;11.70;99.90;;;;;;5007741;28;20731;-64
2022/04/29 06:16:45;;;;;;;10.57;8.90;;;11.80;99.90;;;;;;5013700;28;20237;-64
2022/04/29 06:19:14;;;;;;;10.02;9.00;;;12.00;99.90;;;;;;5008332;28;20617;-64
2022/04/29 06:21:44;;;;;;;12.25;9.27;;;11.80;99.90;;;;;;5008998;28;20225;-64
2022/04/29 06:24:13;;;;;;;9.35;8.10;;;11.90;99.90;;;;;;5006787;28;20198;-64
2022/04/29 06:26:41;;;;;;;10.27;9.25;;;12.00;99.90;;;;;;5006116;28;20552;-65
2022/04/29 06:29:09;;;;;;;10.50;9.40;;;12.10;99.90;;;;;;5007356;28;20206;-65
2022/04/29 06:31:37;;;;;;;9.65;7.75;;;12.20;99.90;;;;;;5008285;28;20666;-64
2022/04/29 06:34:05;;;;;;;9.90;7.80;;;12.40;99.90;;;;;;5006576;28;20201;-64
2022/04/29 06:36:34;;;;;;;13.40;9.43;;;12.40;99.90;;;;;;5008068;28;20229;-64
2022/04/29 06:39:02;;;;;;;9.88;8.88;;;12.30;99.90;;;;;;5007865;28;20291;-65
2022/04/29 06:41:31;;;;;;;11.23;10.15;;;12.20;99.90;;;;;;5007907;28;20217;-64
2022/04/29 06:43:59;;;;;;;11.85;9.52;;;12.10;99.90;;;;;;5007497;28;20220;-64
2022/04/29 06:46:28;;;;;;;10.70;9.70;;;12.00;99.90;;;;;;5008243;28;20270;-64
2022/04/29 06:48:56;;;;;;;10.70;9.55;;;12.00;99.90;;;;;;5008003;28;20259;-64
2022/04/29 06:51:25;;;;;;;12.85;11.02;;;12.00;99.90;;;;;;5007675;28;20241;-64
2022/04/29 06:53:53;;;;;;;11.38;10.07;;;12.00;99.90;;;;;;5007554;28;20247;-64
2022/04/29 06:56:21;;;;;;;11.85;10.70;;;12.00;99.90;;;;;;5007959;28;20205;-64
2022/04/29 06:58:50;;;;;;;12.45;11.18;;;12.10;99.90;;;;;;5007979;28;20239;-63
2022/04/29 07:01:19;;;;;;;12.05;10.85;;;12.10;99.90;;;;;;5001652;28;20222;-64
2022/04/29 07:03:47;;;;;;;14.45;10.95;;;12.10;99.90;;;;;;5001170;28;20270;-64
2022/04/29 07:06:15;;;;;;;17.90;11.95;;;12.10;99.90;;;;;;5001540;28;20283;-64
2022/04/29 07:08:43;;;;;;;12.88;11.45;;;12.20;99.90;;;;;;5004780;28;20282;-62
2022/04/29 07:11:11;;;;;;;12.30;11.15;;;12.30;99.90;;;;;;5001571;28;20221;-64
2022/04/29 07:13:39;;;;;;;11.27;10.27;;;12.40;99.90;;;;;;5001068;28;20241;-65
2022/04/29 07:16:09;;;;;;;12.13;10.77;;;12.50;99.90;;;;;;5001624;28;20230;-64
2022/04/29 07:18:37;;;;;;;14.02;11.73;;;12.60;99.90;;;;;;5002022;28;20197;-65
2022/04/29 07:21:05;;;;;;;11.93;10.73;;;12.70;99.90;;;;;;5007291;28;20225;-64
2022/04/29 07:23:33;;;;;;;20.17;10.88;;;12.70;99.90;;;;;;5009563;28;20212;-64
2022/04/29 07:26:01;;;;;;;11.85;10.75;;;12.80;99.90;;;;;;5011086;28;20205;-64
2022/04/29 07:28:29;;;;;;;13.75;11.15;;;13.00;99.90;;;;;;5011079;28;20206;-63
2022/04/29 07:30:57;;;;;;;12.73;10.63;;;13.10;99.90;;;;;;5010708;28;20241;-64
2022/04/29 07:33:27;;;;;;;13.45;11.27;;;13.20;99.90;;;;;;5010181;28;20211;-64
2022/04/29 07:44:11;;;;;;;13.00;11.45;;;13.60;99.90;;;;;;5010468;28;20209;-64
2022/04/29 07:46:40;;;;;;;13.80;12.52;;;13.70;99.90;;;;;;5010836;28;20288;-64
2022/04/29 07:49:10;;;;;;;12.70;11.50;;;13.80;99.90;;;;;;5010382;28;20212;-65
2022/04/29 07:51:39;;;;;;;13.88;12.57;;;14.10;99.90;;;;;;5010398;28;20277;-65
2022/04/29 07:54:07;;;;;;;12.57;11.35;;;14.10;99.90;;;;;;5009940;28;20293;-64
2022/04/29 07:56:36;;;;;;;13.13;11.80;;;14.20;99.90;;;;;;5010602;28;20312;-64
2022/04/29 07:59:04;;;;;;;14.18;12.73;;;14.30;99.90;;;;;;5010438;28;20233;-65
2022/04/29 08:01:33;;;;;;;18.65;11.50;;;14.50;99.90;;;;;;5010476;28;20256;-64
2022/04/29 08:04:01;;;;;;;12.80;11.68;;;14.60;99.90;;;;;;5009786;28;20201;-64
2022/04/29 08:06:34;;;;;;;13.60;11.43;;;14.60;99.90;;;;;;5010441;28;20206;-64
2022/04/29 08:09:22;;;;;;;15.02;11.50;;;14.60;99.90;;;;;;5009331;28;20201;-63
2022/04/29 08:11:50;;;;;;;14.02;11.20;;;14.70;99.90;;;;;;5010398;28;20304;-64
2022/04/29 08:14:23;;;;;;;13.80;12.40;;;14.80;99.90;;;;;;5010320;28;20209;-65
2022/04/29 08:17:12;;;;;;;12.25;10.90;;;15.00;99.90;;;;;;5010266;28;20205;-65
2022/04/29 08:19:40;;;;;;;21.58;11.25;;;15.10;99.90;;;;;;5010280;28;20286;-64
2022/04/29 08:22:09;;;;;;;15.35;12.18;;;15.40;99.90;;;;;;5009513;28;20312;-64
2022/04/29 08:24:37;;;;;;;12.27;10.85;;;15.60;99.90;;;;;;5010138;28;20308;-64
2022/04/29 08:27:05;;;;;;;12.75;11.10;;;15.80;99.90;;;;;;5010150;28;20652;-63
2022/04/29 08:29:33;;;;;;;17.95;10.77;;;15.90;99.90;;;;;;5009810;28;20274;-64
2022/04/29 08:32:04;;;;;;;12.77;11.50;;;15.90;99.90;;;;;;5009507;28;20243;-64
2022/04/29 08:34:33;;;;;;;11.75;10.60;;;15.90;99.90;;;;;;5010073;28;20602;-64
2022/04/29 08:37:03;;;;;;;11.68;10.18;;;16.10;99.90;;;;;;5009845;28;20237;-64
2022/04/29 08:39:32;;;;;;;13.85;10.57;;;16.10;99.90;;;;;;5009585;28;20221;-64
2022/04/29 08:42:00;;;;;;;14.55;10.35;;;16.00;99.90;;;;;;5009403;28;20225;-66
2022/04/29 08:44:30;;;;;;;11.70;10.52;;;16.20;99.90;;;;;;5009899;28;20213;-64
2022/04/29 08:46:58;;;;;;;12.20;10.00;;;16.30;99.90;;;;;;5010007;28;20259;-64
2022/04/29 08:49:27;;;;;;;11.10;10.13;;;16.50;99.90;;;;;;5009615;28;20228;-64
2022/04/29 08:51:57;;;;;;;11.45;10.23;;;16.60;99.90;;;;;;5009457;28;20197;-63
2022/04/29 09:00:00;;;;;;;13.52;9.88;;;16.90;99.90;;;;;;4977194;28;20286;-65
2022/04/29 09:02:28;;;;;;;10.20;9.25;;;17.00;99.90;;;;;;5008883;28;20616;-63
2022/04/29 09:04:58;;;;;;;9.07;8.35;;;17.40;99.90;;;;;;5009572;28;20210;-65
2022/04/29 09:07:56;;;;;;;10.88;9.85;;;17.80;99.90;;;;;;5009402;28;20300;-64
2022/04/29 09:10:26;;;;;;;9.48;8.57;;;17.90;99.90;;;;;;5009384;28;20693;-65
2022/04/29 09:12:55;;;;;;;8.63;7.80;;;18.00;99.90;;;;;;5008670;28;20247;-65
2022/04/29 09:15:23;;;;;;;9.98;9.00;;;18.00;99.90;;;;;;5009506;28;20198;-64
2022/04/29 09:17:53;;;;;;;6.65;6.15;;;18.20;99.90;;;;;;5009349;28;20209;-63
2022/04/29 09:20:23;;;;;;;11.70;8.30;;;18.40;99.90;;;;;;5009214;28;20280;-65
2022/04/29 09:22:52;;;;;;;11.23;8.05;;;18.50;99.90;;;;;;5008666;28;20745;-64
2022/04/29 09:25:20;;;;;;;8.23;7.63;;;18.40;99.90;;;;;;5009186;28;20197;-64
2022/04/29 09:27:58;;;;;;;8.25;7.45;;;18.40;99.90;;;;;;5009276;28;20205;-65
2022/04/29 09:30:38;;;;;;;8.70;8.00;;;18.40;99.90;;;;;;5009096;28;20261;-64
2022/04/29 09:33:07;;;;;;;10.68;7.60;;;18.30;99.90;;;;;;5008498;28;20658;-65
2022/04/29 09:35:37;;;;;;;8.88;7.90;;;18.60;99.90;;;;;;5009055;28;20198;-65
2022/04/29 09:40:52;;;;;;;7.63;6.93;;;18.90;99.30;;;;;;5049870;28;20308;-64
2022/04/29 09:43:36;;;;;;;8.95;7.47;;;19.00;99.90;;;;;;5021734;28;20361;-64
2022/04/29 09:46:15;;;;;;;7.72;6.97;;;19.40;99.90;;;;;;5008490;28;20224;-65
2022/04/29 09:48:58;;;;;;;9.23;8.32;;;19.60;99.60;;;;;;5003185;28;20212;-65
2022/04/29 09:51:53;;;;;;;7.70;6.95;;;19.90;98.80;;;;;;5008567;28;20302;-65
2022/04/29 09:54:23;;;;;;;12.32;7.45;;;20.20;98.20;;;;;;5008464;28;20266;-65
2022/04/29 09:57:11;;;;;;;9.68;8.15;;;20.20;96.90;;;;;;5002761;28;20644;-66
2022/04/29 09:59:43;;;;;;;8.98;7.93;;;20.30;97.10;;;;;;5005657;28;20221;-65
2022/04/29 10:02:12;;;;;;;7.88;7.18;;;20.50;97.00;;;;;;5007930;28;20666;-65
2022/04/29 10:04:42;;;;;;;7.03;6.53;;;20.40;97.70;;;;;;5008921;28;20550;-65
2022/04/29 10:07:13;;;;;;;7.43;6.72;;;20.30;97.80;;;;;;5008643;28;20205;-64
2022/04/29 10:09:45;;;;;;;7.38;6.60;;;20.40;97.50;;;;;;5008266;28;20249;-64
2022/04/29 10:12:14;;;;;;;9.57;8.02;;;20.40;97.30;;;;;;5008314;28;20623;-63
2022/04/29 10:14:45;;;;;;;7.65;7.05;;;20.20;96.90;;;;;;5008429;28;20289;-64
2022/04/29 10:22:51;;;;;;;7.85;7.25;;;20.20;96.40;;;;;;5007774;28;20675;-64
2022/04/29 10:25:21;;;;;;;10.18;7.38;;;20.20;97.70;;;;;;5008026;28;20622;-64
2022/04/29 10:27:50;;;;;;;8.32;7.63;;;20.10;97.80;;;;;;5008561;28;20209;-64
2022/04/29 10:30:27;;;;;;;8.77;8.00;;;19.80;96.90;;;;;;5008287;28;20268;-64
2022/04/29 10:33:07;;;;;;;6.10;5.60;;;19.80;96.70;;;;;;5007607;28;20209;-64
2022/04/29 10:35:53;;;;;;;7.30;6.68;;;20.00;97.10;;;;;;5008039;28;20235;-63
2022/04/29 10:38:25;;;;;;;6.60;6.10;;;20.20;95.60;;;;;;5008385;28;20206;-64
2022/04/29 10:41:16;;;;;;;7.85;7.05;;;20.40;96.00;;;;;;5007636;28;20706;-64
2022/04/29 10:44:04;;;;;;;6.57;5.90;;;20.60;96.30;;;;;;5004784;28;20274;-65
2022/04/29 10:46:35;;;;;;;8.40;6.53;;;21.20;95.60;;;;;;5007946;28;20237;-65
2022/04/29 10:49:27;;;;;;;7.28;6.57;;;21.80;96.00;;;;;;5008142;28;20726;-64
2022/04/29 10:51:56;;;;;;;9.30;6.57;;;22.30;94.20;;;;;;5007812;28;20259;-64
2022/04/29 10:54:43;;;;;;;6.20;5.60;;;22.60;92.60;;;;;;5007855;28;20300;-64
2022/04/29 10:57:14;;;;;;;7.20;5.25;;;23.00;91.50;;;;;;5008779;28;20211;-65
2022/04/29 10:59:57;;;;;;;6.13;5.55;;;22.90;90.60;;;;;;5011580;28;20239;-65
2022/04/29 11:02:31;;;;;;;5.50;4.80;;;22.90;86.50;;;;;;5010748;28;20665;-65
2022/04/29 11:05:00;;;;;;;6.00;5.22;;;22.80;82.10;;;;;;5011373;28;20205;-65
2022/04/29 11:07:42;;;;;;;7.97;5.45;;;22.70;84.10;;;;;;5004877;28;20209;-65
2022/04/29 11:10:12;;;;;;;5.80;5.30;;;22.50;86.00;;;;;;5010897;28;20303;-65
2022/04/29 11:12:42;;;;;;;6.65;6.13;;;22.30;86.80;;;;;;5010711;28;20237;-65
2022/04/29 11:15:12;;;;;;;5.88;5.38;;;21.90;87.80;;;;;;5011283;28;20206;-65
2022/04/29 11:17:42;;;;;;;7.55;5.20;;;21.40;88.00;;;;;;5011268;28;20258;-64
2022/04/29 11:20:15;;;;;;;5.80;5.22;;;21.30;88.50;;;;;;5011238;28;20222;-65
2022/04/29 11:25:50;;;;;;;5.68;5.18;;;21.30;90.40;;;;;;5010879;28;20616;-64
2022/04/29 11:28:18;;;;;;;5.38;4.88;;;21.20;87.70;;;;;;5011112;28;20201;-64
2022/04/29 11:30:47;;;;;;;5.80;5.20;;;21.40;90.00;;;;;;5011003;28;20294;-64
2022/04/29 11:33:22;;;;;;;7.65;6.13;;;21.30;89.00;;;;;;5010284;28;21019;-64
2022/04/29 11:36:00;;;;;;;6.28;5.50;;;21.40;88.70;;;;;;5010812;28;20204;-64
2022/04/29 11:38:30;;;;;;;6.97;5.47;;;21.50;87.10;;;;;;5011093;28;20205;-64
2022/04/29 11:41:00;;;;;;;8.35;5.78;;;21.90;89.20;;;;;;5010643;28;20278;-65
2022/04/29 11:43:29;;;;;;;6.18;5.57;;;22.40;89.00;;;;;;5009834;28;20217;-65
2022/04/29 11:46:05;;;;;;;8.00;5.43;;;22.60;86.20;;;;;;5010596;28;20598;-64
2022/04/29 11:48:35;;;;;;;5.32;4.78;;;22.70;84.50;;;;;;5010861;28;20243;-64
2022/04/29 11:51:05;;;;;;;5.68;5.13;;;22.60;85.30;;;;;;5054264;22;20234;-62
2022/04/29 11:53:33;;;;;;;6.88;5.28;;;22.40;84.50;;;;;;5072753;28;20196;-62
2022/04/29 11:56:01;;;;;;;5.13;4.32;;;22.20;84.40;;;;;;5073204;28;20199;-60
2022/04/29 11:58:30;;;;;;;4.13;3.72;;;22.20;82.00;;;;;;5073827;28;20244;-63
2022/04/29 12:00:58;;;;;;;3.50;3.20;;;22.30;78.90;;;;;;5073465;28;20223;-62
2022/04/29 12:03:26;;;;;;;4.32;3.10;;;22.60;79.00;;;;;;5072721;28;20223;-62
2022/04/29 12:05:56;;;;;;;3.33;3.03;;;22.90;77.60;;;;;;5073234;28;20218;-63
2022/04/29 12:08:24;;;;;;;3.30;3.00;;;23.20;77.80;;;;;;5072827;28;20203;-62
2022/04/29 12:10:51;;;;;;;4.25;3.17;;;23.20;74.40;;;;;;5073013;28;20215;-62
2022/04/29 12:13:21;;;;;;;2.80;2.60;;;23.20;71.70;;;;;;5072892;28;20268;-63
2022/04/29 12:15:54;;;;;;;2.70;2.50;;;23.20;73.10;;;;;;5073263;28;20671;-63
2022/04/29 12:18:41;;;;;;;2.90;2.70;;;23.20;72.50;;;;;;5073414;28;20676;-62
2022/04/29 12:21:10;;;;;;;2.75;2.40;;;22.90;72.90;;;;;;5073091;28;20613;-62
2022/04/29 12:23:38;;;;;;;2.88;2.67;;;22.80;71.00;;;;;;5072477;28;20219;-63
2022/04/29 12:26:07;;;;;;;2.60;2.40;;;22.60;74.00;;;;;;5072951;28;20216;-62
2022/04/29 12:28:37;;;;;;;4.55;2.50;;;22.70;73.60;;;;;;5073177;28;20286;-62
2022/04/29 12:36:53;;;;;;;3.35;2.83;;;23.80;74.20;;;;;;5072743;28;20207;-62
2022/04/29 12:39:24;;;;;;;4.05;2.80;;;23.90;71.30;;;;;;5073144;28;20203;-62
2022/04/29 12:42:00;;;;;;;2.80;2.60;;;23.70;68.80;;;;;;5072664;28;20210;-62
2022/04/29 12:45:05;;;;;;;2.40;2.20;;;23.60;71.00;;;;;;5067241;28;20254;-62
2022/04/29 12:47:38;;;;;;;2.53;2.35;;;23.30;68.70;;;;;;5072614;28;20210;-61
2022/04/29 12:50:17;;;;;;;3.38;2.10;;;23.30;69.10;;;;;;5072149;28;20239;-62
2022/04/29 12:53:00;;;;;;;2.30;2.10;;;23.20;66.70;;;;;;5071718;28;20203;-62
2022/04/29 12:55:30;;;;;;;3.13;2.83;;;23.00;66.60;;;;;;5072389;28;20200;-62
2022/04/29 12:58:06;;;;;;;2.58;2.30;;;23.00;67.40;;;;;;5072326;28;20412;-61
2022/04/29 13:00:37;;;;;;;2.47;2.28;;;23.10;69.80;;;;;;5072283;28;20219;-62
2022/04/29 13:03:07;;;;;;;2.60;2.33;;;23.00;68.40;;;;;;5072044;28;20574;-62
2022/04/29 13:05:37;;;;;;;3.95;2.35;;;22.90;69.20;;;;;;5072302;28;20230;-62
2022/04/29 13:08:09;;;;;;;2.13;1.92;;;22.90;69.80;;;;;;5072202;28;20214;-62
2022/04/29 13:10:44;;;;;;;2.95;1.85;;;23.10;68.50;;;;;;5071772;28;20607;-62
2022/04/29 13:13:13;;;;;;;2.42;2.30;;;22.90;68.90;;;;;;5065714;28;20607;-62
2022/04/29 13:15:41;;;;;;;3.75;2.72;;;22.80;69.40;;;;;;5072006;28;20234;-62
2022/04/29 13:18:14;;;;;;;3.50;3.17;;;22.70;69.60;;;;;;5072376;28;20211;-62
2022/04/29 13:20:42;;;;;;;2.65;2.45;;;22.60;68.70;;;;;;5071158;28;20277;-63
2022/04/29 13:23:12;;;;;;;2.75;2.55;;;22.50;69.70;;;;;;5071301;28;20676;-62
2022/04/29 13:25:41;;;;;;;3.45;2.92;;;22.50;70.50;;;;;;5071755;28;20317;-64
2022/04/29 13:28:11;;;;;;;3.10;2.90;;;22.90;70.10;;;;;;5071714;28;20231;-62
2022/04/29 13:30:39;;;;;;;2.72;2.50;;;23.30;69.10;;;;;;5071890;28;20314;-63
2022/04/29 13:33:08;;;;;;;2.80;2.60;;;24.00;66.40;;;;;;5071249;28;20668;-62
2022/04/29 13:35:36;;;;;;;2.47;2.28;;;24.70;65.60;;;;;;5072182;28;20607;-61
2022/04/29 13:38:05;;;;;;;2.65;2.45;;;25.40;66.50;;;;;;5071381;28;20199;-62